createdAt,value
2023-01-13T00:01:48.209Z,92.46
2023-01-13T00:07:08.995Z,92.44
2023-01-13T00:12:30.215Z,92.60
2023-01-13T00:17:51.252Z,92.47
2023-01-13T00:23:12.306Z,92.23
2023-01-13T00:28:33.485Z,92.20
2023-01-13T00:34:00.986Z,92.17
2023-01-13T00:39:22.002Z,92.35
2023-01-13T00:44:43.038Z,92.24
2023-01-13T00:50:03.896Z,91.97
2023-01-13T00:55:24.770Z,91.89
2023-01-13T01:00:46.112Z,91.85
2023-01-13T01:06:16.578Z,91.88
2023-01-13T01:11:38.123Z,91.81
2023-01-13T01:16:58.979Z,91.50
2023-01-13T01:22:20.122Z,91.25
2023-01-13T01:27:40.920Z,91.15
2023-01-13T01:33:03.407Z,91.02
2023-01-13T01:38:24.281Z,90.99
2023-01-13T01:44:04.355Z,90.89
2023-01-13T01:49:34.007Z,90.71
2023-01-13T01:55:03.663Z,90.59
2023-01-13T02:00:27.172Z,90.58
2023-01-13T02:05:47.883Z,90.66
2023-01-13T02:11:46.538Z,90.37
2023-01-13T02:17:36.831Z,90.27
2023-01-13T02:23:41.793Z,90.33
2023-01-13T02:29:43.674Z,90.00
2023-01-13T02:35:12.672Z,89.93
2023-01-13T02:40:40.361Z,89.65
2023-01-13T02:46:49.732Z,89.86
2023-01-13T02:52:17.800Z,89.38
2023-01-13T02:57:41.173Z,89.04
2023-01-13T03:03:02.417Z,89.09
2023-01-13T03:08:43.213Z,89.07
2023-01-13T03:14:20.927Z,89.32
2023-01-13T03:19:53.533Z,89.67
2023-01-13T03:25:22.790Z,89.99
2023-01-13T03:30:50.021Z,90.05
2023-01-13T03:36:15.000Z,89.58
2023-01-13T03:41:48.877Z,89.26
2023-01-13T03:47:52.347Z,88.85
2023-01-13T03:53:22.899Z,88.71
2023-01-13T03:58:48.184Z,88.59
2023-01-13T04:04:32.330Z,88.58
2023-01-13T04:09:56.443Z,88.73
2023-01-13T04:15:27.985Z,88.57
2023-01-13T04:20:50.510Z,88.17
2023-01-13T04:26:11.273Z,88.04
2023-01-13T04:39:03.994Z,87.88
2023-01-13T04:44:24.377Z,87.78
2023-01-13T04:49:45.280Z,87.70
2023-01-13T04:55:07.083Z,87.54
2023-01-13T05:00:27.510Z,87.70
2023-01-13T05:05:51.479Z,87.70
2023-01-13T05:11:30.952Z,87.64
2023-01-13T05:17:00.404Z,87.41
2023-01-13T05:22:39.499Z,87.39
2023-01-13T05:28:00.693Z,87.39
2023-01-13T05:33:21.193Z,87.49
2023-01-13T05:38:42.209Z,87.38
2023-01-13T05:44:02.737Z,87.42
2023-01-13T05:49:23.749Z,87.70
2023-01-13T05:54:44.239Z,87.57
2023-01-13T06:00:05.612Z,87.51
2023-01-13T06:05:33.374Z,87.57
2023-01-13T06:10:54.023Z,87.74
2023-01-13T06:16:14.573Z,87.90
2023-01-13T06:21:35.656Z,88.13
2023-01-13T06:26:56.858Z,88.31
2023-01-13T06:32:21.607Z,88.19
2023-01-13T06:37:45.110Z,88.16
2023-01-13T06:43:17.919Z,87.96
2023-01-13T06:48:38.367Z,88.55
2023-01-13T06:53:59.151Z,88.70
2023-01-13T06:59:19.595Z,88.15
2023-01-13T07:04:40.314Z,88.24
2023-01-13T07:10:00.853Z,88.12
2023-01-13T07:15:21.772Z,88.13
2023-01-13T07:20:42.352Z,88.23
2023-01-13T07:26:03.093Z,88.16
2023-01-13T07:31:23.786Z,87.87
2023-01-13T07:36:44.212Z,88.05
2023-01-13T07:42:23.283Z,88.10
2023-01-13T07:47:43.857Z,88.20
2023-01-13T07:53:04.819Z,88.40
2023-01-13T07:58:26.196Z,88.43
2023-01-13T08:03:46.964Z,88.32
2023-01-13T08:09:08.505Z,88.38
2023-01-13T08:14:29.369Z,88.23
2023-01-13T08:19:50.100Z,88.16
2023-01-13T08:25:10.897Z,88.08
2023-01-13T08:30:31.848Z,88.21
2023-01-13T08:35:53.244Z,88.06
2023-01-13T08:41:36.271Z,88.07
2023-01-13T08:46:57.395Z,87.87
2023-01-13T08:52:17.802Z,87.71
2023-01-13T08:57:38.334Z,87.86
2023-01-13T09:02:58.928Z,88.06
2023-01-13T09:08:24.274Z,88.18
2023-01-13T09:13:46.061Z,88.44
2023-01-13T09:19:06.821Z,88.48
2023-01-13T09:24:27.439Z,88.45
2023-01-13T09:29:48.065Z,88.59
2023-01-13T09:35:09.478Z,88.50
2023-01-13T09:40:30.173Z,88.49
2023-01-13T09:46:02.067Z,88.52
2023-01-13T09:51:31.757Z,88.52
2023-01-13T09:56:53.119Z,88.36
2023-01-13T10:02:19.373Z,88.45
2023-01-13T10:07:49.553Z,88.95
2023-01-13T10:13:20.535Z,89.07
2023-01-13T10:19:02.998Z,89.39
2023-01-13T10:24:45.856Z,89.40
2023-01-13T10:30:25.995Z,89.50
2023-01-13T10:35:52.732Z,89.38
2023-01-13T10:41:18.064Z,89.29
2023-01-13T10:46:53.471Z,89.63
2023-01-13T10:52:30.599Z,89.35
2023-01-13T10:57:51.078Z,89.16
2023-01-13T11:03:17.789Z,89.08
2023-01-13T11:08:45.871Z,88.02
2023-01-13T11:14:36.930Z,88.32
2023-01-13T11:20:05.166Z,88.29
2023-01-13T11:25:33.821Z,88.23
2023-01-13T11:31:14.537Z,88.25
2023-01-13T11:36:40.155Z,88.52
2023-01-13T11:42:21.804Z,88.62
2023-01-13T11:47:46.889Z,87.95
2023-01-13T11:53:22.555Z,87.07
2023-01-13T11:59:00.899Z,86.84
2023-01-13T12:04:29.428Z,86.16
2023-01-13T12:10:13.653Z,86.02
2023-01-13T12:16:02.130Z,83.17
2023-01-13T12:21:54.686Z,82.89
2023-01-13T12:27:23.719Z,84.83
2023-01-13T12:32:45.609Z,85.66
2023-01-13T12:38:24.251Z,86.25
2023-01-13T12:44:07.137Z,85.18
2023-01-13T12:49:35.216Z,85.42
2023-01-13T12:54:55.556Z,86.46
2023-01-13T13:00:16.923Z,86.87
2023-01-13T13:06:07.769Z,87.26
2023-01-13T13:11:56.444Z,87.43
2023-01-13T13:17:19.606Z,87.36
2023-01-13T13:22:49.977Z,87.10
2023-01-13T13:28:18.245Z,86.07
2023-01-13T13:33:58.464Z,86.73
2023-01-13T13:39:43.105Z,87.28
2023-01-13T13:45:40.052Z,87.65
2023-01-13T13:51:04.698Z,86.79
2023-01-13T13:56:29.051Z,86.62
2023-01-13T14:02:00.730Z,86.59
2023-01-13T14:07:21.914Z,86.84
2023-01-13T14:12:42.399Z,86.98
2023-01-13T14:18:06.337Z,86.83
2023-01-13T14:23:30.221Z,86.67
2023-01-13T14:28:51.099Z,86.41
2023-01-13T14:34:31.751Z,85.79
2023-01-13T14:39:54.049Z,85.84
2023-01-13T14:45:24.445Z,85.90
2023-01-13T14:50:46.685Z,85.47
2023-01-13T14:56:36.435Z,85.86
2023-01-13T15:01:57.311Z,86.02
2023-01-13T15:07:25.565Z,85.88
2023-01-13T15:12:49.228Z,85.75
2023-01-13T15:18:17.343Z,85.76
2023-01-13T15:23:41.056Z,85.95
2023-01-13T15:29:05.517Z,86.00
2023-01-13T15:34:26.232Z,86.00
2023-01-13T15:39:46.756Z,85.96
2023-01-13T15:45:27.918Z,85.76
2023-01-13T15:50:48.378Z,85.58
2023-01-13T15:56:18.797Z,85.46
2023-01-13T16:01:39.165Z,85.43
2023-01-13T16:06:59.594Z,85.52
2023-01-13T16:12:20.466Z,85.59
2023-01-13T16:17:42.277Z,85.41
2023-01-13T16:23:02.807Z,85.22
2023-01-13T16:28:28.085Z,85.31
2023-01-13T16:33:48.620Z,85.49
2023-01-13T16:39:20.972Z,85.86
2023-01-13T16:44:41.377Z,85.91
2023-01-13T16:50:02.955Z,85.84
2023-01-13T16:55:23.519Z,85.87
2023-01-13T17:00:48.050Z,86.44
2023-01-13T17:06:11.050Z,86.48
2023-01-13T17:11:32.110Z,86.73
2023-01-13T17:16:55.445Z,86.96
2023-01-13T17:22:15.901Z,86.64
2023-01-13T17:27:36.360Z,86.78
2023-01-13T17:32:56.882Z,86.61
2023-01-13T17:38:17.732Z,86.72
2023-01-13T17:43:38.306Z,86.93
2023-01-13T17:48:58.735Z,87.22
2023-01-13T17:54:19.525Z,87.04
2023-01-13T17:59:41.436Z,86.79
2023-01-13T18:05:01.993Z,86.32
2023-01-13T18:10:23.130Z,86.57
2023-01-13T18:15:43.648Z,86.27
2023-01-13T18:21:23.436Z,86.15
2023-01-13T18:27:04.764Z,86.13
2023-01-13T18:32:31.465Z,85.94
2023-01-13T18:37:53.174Z,86.32
2023-01-13T18:43:14.491Z,86.25
2023-01-13T18:48:35.416Z,86.16
2023-01-13T18:53:56.003Z,86.23
2023-01-13T18:59:17.563Z,86.75
2023-01-13T19:04:38.958Z,86.73
2023-01-13T19:10:00.472Z,87.04
2023-01-13T19:15:21.012Z,87.33
2023-01-13T19:20:41.971Z,87.31
2023-01-13T19:26:05.958Z,87.00
2023-01-13T19:31:26.488Z,86.78
2023-01-13T19:36:47.079Z,86.16
2023-01-13T19:42:26.723Z,85.50
2023-01-13T19:47:47.140Z,84.59
2023-01-13T19:53:15.984Z,84.11
2023-01-13T19:58:36.797Z,83.68
2023-01-13T20:04:03.097Z,83.42
2023-01-13T20:09:23.583Z,83.42
2023-01-13T20:14:45.153Z,83.16
2023-01-13T20:20:06.668Z,83.20
2023-01-13T20:25:31.038Z,83.26
2023-01-13T20:30:53.281Z,83.42
2023-01-13T20:36:26.368Z,83.36
2023-01-13T20:42:05.824Z,83.27
2023-01-13T20:47:28.033Z,83.45
2023-01-13T20:52:48.650Z,83.25
2023-01-13T20:58:09.231Z,83.39
2023-01-13T21:03:30.052Z,83.27
2023-01-13T21:08:54.130Z,83.00
2023-01-13T21:14:33.280Z,83.12
2023-01-13T21:19:53.715Z,83.14
2023-01-13T21:25:15.714Z,82.97
2023-01-13T21:30:38.814Z,82.62
2023-01-13T21:36:08.090Z,83.05
2023-01-13T21:41:47.616Z,82.96
2023-01-13T21:47:37.588Z,83.10
2023-01-13T21:52:58.844Z,83.07
2023-01-13T21:58:19.260Z,82.82
2023-01-13T22:03:59.030Z,82.90
2023-01-13T22:09:19.639Z,82.87
2023-01-13T22:14:40.144Z,82.77
2023-01-13T22:20:01.361Z,82.74
2023-01-13T22:25:21.696Z,83.04
2023-01-13T22:30:42.437Z,83.06
2023-01-13T22:36:03.130Z,83.05
2023-01-13T22:41:23.928Z,83.11
2023-01-13T22:46:44.662Z,82.89
2023-01-13T22:52:05.826Z,82.61
2023-01-13T22:57:36.043Z,82.74
2023-01-13T23:02:59.333Z,83.00
2023-01-13T23:08:19.861Z,83.38
2023-01-13T23:13:43.155Z,83.65
2023-01-13T23:19:05.796Z,83.09
2023-01-13T23:24:27.875Z,82.92
2023-01-13T23:29:49.030Z,83.10
2023-01-13T23:35:09.900Z,83.15
2023-01-13T23:40:30.704Z,83.29
2023-01-13T23:45:51.656Z,84.24
2023-01-13T23:51:13.433Z,83.90
2023-01-13T23:56:35.041Z,83.92
